Time;durP1;ratioP1;P1;durP2;ratioP2;P2;SDS_P1;SDS_P2;PMS_P1;PMS_P2;Temp;Humidity;BMP_temperature;BMP_pressure;BME280_temperature;BME280_humidity;BME280_pressure;Samples;Min_cycle;Max_cycle;Signal;HPM_P1;HPM_P2
2022/03/06 00:01:17;;;;;;;;;;;0.20;92.20;;;;;;5017002;28;19951;-82
2022/03/06 00:03:44;;;;;;;;;;;0.20;92.50;;;;;;5014665;28;19977;-86
2022/03/06 00:06:13;;;;;;;;;;;0.10;92.50;;;;;;4996896;28;19925;-82
2022/03/06 00:08:40;;;;;;;;;;;0.10;92.70;;;;;;5024393;28;19976;-83
2022/03/06 00:11:06;;;;;;;;;;;0.00;92.70;;;;;;5011884;28;19925;-87
2022/03/06 00:13:35;;;;;;;;;;;0.00;92.90;;;;;;5014674;28;19941;-85
2022/03/06 00:16:02;;;;;;;;;;;0.00;93.00;;;;;;5013070;28;19925;-81
2022/03/06 00:18:30;;;;;;;;;;;0.00;92.60;;;;;;5013329;28;20404;-85
2022/03/06 00:20:59;;;;;;;;;;;0.00;92.70;;;;;;5010003;28;19925;-82
2022/03/06 00:23:25;;;;;;;;;;;-0.10;92.70;;;;;;5015847;28;19936;-83
2022/03/06 00:25:52;;;;;;;;;;;-0.10;93.10;;;;;;4997832;28;20243;-82
2022/03/06 00:28:19;;;;;;;;;;;-0.10;93.20;;;;;;5019549;28;19916;-86
2022/03/06 00:30:48;;;;;;;;;;;0.00;93.30;;;;;;5023768;28;19922;-85
2022/03/06 00:33:14;;;;;;;;;;;-0.10;93.20;;;;;;5018104;28;19925;-82
2022/03/06 00:35:42;;;;;;;;;;;-0.10;93.30;;;;;;4994938;28;19925;-83
2022/03/06 00:38:09;;;;;;;;;;;-0.10;92.80;;;;;;5015847;28;19929;-82
2022/03/06 00:40:36;;;;;;;;;;;-0.10;93.30;;;;;;5011545;28;20326;-83
2022/03/06 00:43:03;;;;;;;;;;;-0.20;93.40;;;;;;5012053;28;19925;-83
2022/03/06 00:45:30;;;;;;;;;;;-0.10;93.30;;;;;;5012634;28;19933;-82
2022/03/06 00:47:57;;;;;;;;;;;-0.10;93.90;;;;;;5013929;28;20775;-82
2022/03/06 00:50:24;;;;;;;;;;;-0.10;94.00;;;;;;5012314;28;19935;-82
2022/03/06 00:52:52;;;;;;;;;;;-0.10;93.90;;;;;;5014658;28;19925;-82
2022/03/06 00:55:19;;;;;;;;;;;-0.10;93.40;;;;;;5015548;28;19926;-84
2022/03/06 00:57:46;;;;;;;;;;;-0.10;93.90;;;;;;5011394;28;20405;-85
2022/03/06 01:00:13;;;;;;;;;;;-0.20;93.40;;;;;;5011042;28;20309;-83
2022/03/06 01:02:40;;;;;;;;;;;-0.20;93.90;;;;;;5013829;28;19953;-84
2022/03/06 01:05:07;;;;;;;;;;;-0.20;93.70;;;;;;5016664;28;19928;-83
2022/03/06 01:07:33;;;;;;;;;;;-0.30;93.90;;;;;;4999044;28;19925;-85
2022/03/06 01:10:01;;;;;;;;;;;-0.30;93.90;;;;;;5007722;28;19925;-84
2022/03/06 01:12:28;;;;;;;;;;;-0.30;93.90;;;;;;5017504;28;19937;-84
2022/03/06 01:14:55;;;;;;;;;;;;;;;;;;5013651;28;20266;-82
2022/03/06 01:17:23;;;;;;;;;;;-0.30;94.20;;;;;;4999776;28;19944;-82
2022/03/06 01:19:49;;;;;;;;;;;-0.30;94.20;;;;;;5010004;28;19929;-82
2022/03/06 01:22:16;;;;;;;;;;;-0.40;94.20;;;;;;5010546;28;19925;-83
2022/03/06 01:24:43;;;;;;;;;;;-0.40;94.40;;;;;;5013738;28;19932;-81
2022/03/06 01:27:10;;;;;;;;;;;;;;;;;;4995543;28;19983;-81
2022/03/06 01:29:38;;;;;;;;;;;-0.30;94.50;;;;;;4997410;28;19940;-81
2022/03/06 01:32:05;;;;;;;;;;;-0.40;94.50;;;;;;5014387;28;20324;-81
2022/03/06 01:34:32;;;;;;;;;;;-0.40;94.60;;;;;;4995703;28;19929;-81
2022/03/06 01:36:59;;;;;;;;;;;-0.30;94.70;;;;;;4994825;28;19929;-81
2022/03/06 01:39:26;;;;;;;;;;;-0.30;94.70;;;;;;5013198;28;19922;-81
2022/03/06 01:41:52;;;;;;;;;;;-0.30;94.70;;;;;;4992443;28;20397;-80
2022/03/06 01:44:19;;;;;;;;;;;;;;;;;;5012580;28;19925;-82
2022/03/06 01:46:46;;;;;;;;;;;;;;;;;;5011211;28;20357;-80
2022/03/06 01:49:14;;;;;;;;;;;;;;;;;;5014793;28;19933;-80
2022/03/06 01:51:41;;;;;;;;;;;;;;;;;;5022439;28;19944;-81
2022/03/06 01:54:08;;;;;;;;;;;;;;;;;;5018977;28;19932;-81
2022/03/06 01:56:35;;;;;;;;;;;;;;;;;;5019126;28;19937;-80
2022/03/06 01:59:02;;;;;;;;;;;;;;;;;;4996779;28;19925;-82
2022/03/06 02:01:30;;;;;;;;;;;-0.50;94.70;;;;;;5017568;28;19933;-82
2022/03/06 02:03:57;;;;;;;;;;;-0.50;94.80;;;;;;5010888;28;19921;-81
2022/03/06 02:06:24;;;;;;;;;;;;;;;;;;5001360;28;19925;-81
2022/03/06 02:08:51;;;;;;;;;;;;;;;;;;5017454;28;19925;-81
2022/03/06 02:11:19;;;;;;;;;;;-0.50;95.10;;;;;;5016051;28;19937;-82
2022/03/06 02:13:46;;;;;;;;;;;-0.50;95.10;;;;;;4999872;28;19927;-82
2022/03/06 02:16:12;;;;;;;;;;;-0.50;95.10;;;;;;5016230;28;20499;-83
2022/03/06 02:18:40;;;;;;;;;;;-0.50;95.20;;;;;;5015163;28;19944;-80
2022/03/06 02:21:08;;;;;;;;;;;;;;;;;;5013813;28;19925;-81
2022/03/06 02:23:36;;;;;;;;;;;-0.60;95.10;;;;;;5016763;28;19926;-81
2022/03/06 02:26:03;;;;;;;;;;;;;;;;;;5010899;28;20015;-81
2022/03/06 02:28:31;;;;;;;;;;;-0.70;95.20;;;;;;5023097;28;19921;-81
2022/03/06 02:30:57;;;;;;;;;;;-0.80;95.20;;;;;;5015316;28;20352;-81
2022/03/06 02:33:24;;;;;;;;;;;-0.70;95.30;;;;;;5014494;28;19925;-82
2022/03/06 02:35:51;;;;;;;;;;;-0.80;95.40;;;;;;5011871;28;20036;-81
2022/03/06 02:38:18;;;;;;;;;;;;;;;;;;5011320;28;19926;-82
2022/03/06 02:40:47;;;;;;;;;;;-0.70;95.70;;;;;;5006378;28;19925;-82
2022/03/06 02:43:14;;;;;;;;;;;-0.70;95.90;;;;;;5012275;28;19925;-82
2022/03/06 02:45:42;;;;;;;;;;;;;;;;;;5014801;28;19929;-82
2022/03/06 02:48:09;;;;;;;;;;;;;;;;;;5013099;28;19921;-81
2022/03/06 02:50:36;;;;;;;;;;;;;;;;;;5015651;28;19932;-82
2022/03/06 02:53:03;;;;;;;;;;;;;;;;;;5013739;28;19936;-81
2022/03/06 02:55:30;;;;;;;;;;;-0.30;96.50;;;;;;5012552;28;19932;-81
2022/03/06 02:57:57;;;;;;;;;;;;;;;;;;5017267;28;19921;-82
2022/03/06 03:00:26;;;;;;;;;;;-0.20;96.70;;;;;;5003384;28;20816;-81
2022/03/06 03:02:53;;;;;;;;;;;-0.20;96.70;;;;;;5025380;28;20028;-81
2022/03/06 03:05:20;;;;;;;;;;;-0.20;96.80;;;;;;5014088;28;20760;-81
2022/03/06 03:07:48;;;;;;;;;;;-0.10;96.90;;;;;;5008594;28;19921;-82
2022/03/06 03:10:16;;;;;;;;;;;;;;;;;;5011332;28;19932;-81
2022/03/06 03:12:43;;;;;;;;;;;;;;;;;;5011338;28;19933;-82
2022/03/06 03:15:10;;;;;;;;;;;-0.20;97.20;;;;;;5011939;28;19921;-81
2022/03/06 03:17:38;;;;;;;;;;;-0.20;97.40;;;;;;5011059;28;19976;-82
2022/03/06 03:20:06;;;;;;;;;;;-0.20;97.40;;;;;;5024887;28;19952;-79
2022/03/06 03:22:33;;;;;;;;;;;-0.20;97.40;;;;;;5028300;28;19993;-81
2022/03/06 03:25:00;;;;;;;;;;;-0.20;97.30;;;;;;5019341;28;19921;-82
2022/03/06 03:27:27;;;;;;;;;;;2.60;98.70;;;;;;5015372;28;19925;-82
2022/03/06 03:29:53;;;;;;;;;;;-0.20;97.50;;;;;;5012208;28;19929;-82
2022/03/06 03:32:20;;;;;;;;;;;;;;;;;;4998597;28;20432;-81
2022/03/06 03:34:49;;;;;;;;;;;-0.20;97.30;;;;;;5010641;28;20043;-82
2022/03/06 03:37:16;;;;;;;;;;;1.70;98.10;;;;;;5010915;28;19995;-82
2022/03/06 03:39:42;;;;;;;;;;;-0.20;97.30;;;;;;5010950;28;20405;-80
2022/03/06 03:42:09;;;;;;;;;;;-0.20;97.80;;;;;;5010021;28;19929;-81
2022/03/06 03:44:36;;;;;;;;;;;-0.30;97.40;;;;;;5012391;28;20562;-80
2022/03/06 03:47:03;;;;;;;;;;;-0.30;97.70;;;;;;5012866;28;19973;-81
2022/03/06 03:49:30;;;;;;;;;;;-0.40;97.30;;;;;;5011006;28;19925;-80
2022/03/06 03:51:58;;;;;;;;;;;-0.40;97.60;;;;;;5013671;28;19932;-80
2022/03/06 03:54:24;;;;;;;;;;;-0.50;97.10;;;;;;5013811;28;19925;-82
2022/03/06 03:56:51;;;;;;;;;;;-0.50;97.20;;;;;;5012437;28;19926;-82
2022/03/06 03:59:18;;;;;;;;;;;-0.50;97.50;;;;;;5017087;28;19997;-81
2022/03/06 04:01:44;;;;;;;;;;;-0.50;97.50;;;;;;5014469;28;19925;-83
2022/03/06 04:04:11;;;;;;;;;;;-0.60;96.90;;;;;;5015244;28;19936;-82
2022/03/06 04:06:38;;;;;;;;;;;-0.70;97.10;;;;;;5027348;28;20293;-81
2022/03/06 04:09:06;;;;;;;;;;;-0.70;97.00;;;;;;5006518;28;20674;-82
2022/03/06 04:11:33;;;;;;;;;;;-0.70;97.10;;;;;;5016385;28;19929;-81
2022/03/06 04:13:59;;;;;;;;;;;-0.80;97.00;;;;;;5014895;28;19975;-80
2022/03/06 04:16:26;;;;;;;;;;;-0.70;97.30;;;;;;5028179;28;19925;-80
2022/03/06 04:18:53;;;;;;;;;;;-0.70;97.20;;;;;;5012736;28;19948;-80
2022/03/06 04:21:19;;;;;;;;;;;-0.70;97.60;;;;;;5021112;28;19925;-81
2022/03/06 04:23:46;;;;;;;;;;;-0.70;97.70;;;;;;5022076;28;19932;-79
2022/03/06 04:26:15;;;;;;;;;;;-0.70;97.40;;;;;;5009350;28;19992;-81
2022/03/06 04:28:41;;;;;;;;;;;-0.70;97.80;;;;;;4997664;28;20428;-80
2022/03/06 04:31:08;;;;;;;;;;;-0.70;97.80;;;;;;5012523;28;19929;-81
2022/03/06 04:33:35;;;;;;;;;;;-0.70;97.80;;;;;;5012940;28;20344;-81
2022/03/06 04:36:01;;;;;;;;;;;-0.70;97.50;;;;;;5012425;28;19932;-82
2022/03/06 04:38:28;;;;;;;;;;;-0.70;97.90;;;;;;5012604;28;19960;-81
2022/03/06 04:40:55;;;;;;;;;;;-0.70;97.90;;;;;;5009354;28;19932;-82
2022/03/06 04:43:24;;;;;;;;;;;-0.70;98.00;;;;;;5011716;28;19941;-81
2022/03/06 04:45:51;;;;;;;;;;;-0.70;97.60;;;;;;5010435;28;19922;-81
2022/03/06 04:48:17;;;;;;;;;;;-0.70;98.00;;;;;;5011832;28;19936;-82
2022/03/06 04:50:44;;;;;;;;;;;-0.70;97.70;;;;;;5011725;28;19986;-82
2022/03/06 04:53:11;;;;;;;;;;;-0.70;97.50;;;;;;5024936;28;19985;-81
2022/03/06 04:55:37;;;;;;;;;;;-0.70;97.60;;;;;;5016620;28;20405;-81
2022/03/06 04:58:04;;;;;;;;;;;-0.70;97.70;;;;;;5014550;28;20282;-82
2022/03/06 05:00:33;;;;;;;;;;;-0.80;97.90;;;;;;4994054;28;19921;-82
2022/03/06 05:02:59;;;;;;;;;;;-0.80;97.50;;;;;;5012021;28;19940;-82
2022/03/06 05:05:26;;;;;;;;;;;-0.80;98.00;;;;;;5011409;28;19932;-82
2022/03/06 05:07:53;;;;;;;;;;;-0.80;97.90;;;;;;5011540;28;19929;-82
2022/03/06 05:10:19;;;;;;;;;;;-0.90;97.50;;;;;;5010409;28;19921;-82
2022/03/06 05:12:46;;;;;;;;;;;-0.90;97.40;;;;;;5010926;28;19925;-82
2022/03/06 05:15:13;;;;;;;;;;;-0.90;97.40;;;;;;5010965;28;19933;-82
2022/03/06 05:17:42;;;;;;;;;;;-1.00;97.40;;;;;;5010871;28;19956;-82
2022/03/06 05:20:10;;;;;;;;;;;-0.90;97.90;;;;;;5011585;28;19989;-83
2022/03/06 05:22:37;;;;;;;;;;;-1.00;97.90;;;;;;5010806;28;20575;-82
2022/03/06 05:25:04;;;;;;;;;;;-1.00;97.50;;;;;;5009612;28;20309;-82
2022/03/06 05:27:31;;;;;;;;;;;-1.00;97.80;;;;;;5018338;28;20231;-82
2022/03/06 05:29:57;;;;;;;;;;;-1.00;98.00;;;;;;5011584;28;19922;-82
2022/03/06 05:32:24;;;;;;;;;;;;;;;;;;5011378;28;19922;-82
2022/03/06 05:34:52;;;;;;;;;;;-1.00;97.90;;;;;;4996444;28;19968;-82
2022/03/06 05:37:19;;;;;;;;;;;-1.00;97.90;;;;;;5011670;28;19979;-82
2022/03/06 05:39:46;;;;;;;;;;;-1.00;98.00;;;;;;5026577;28;19929;-82
2022/03/06 05:42:14;;;;;;;;;;;-1.00;98.00;;;;;;5011572;28;19952;-82
2022/03/06 05:44:41;;;;;;;;;;;-1.00;98.10;;;;;;5013106;28;19929;-82
2022/03/06 05:47:08;;;;;;;;;;;;;;;;;;5013577;28;19941;-82
2022/03/06 05:49:35;;;;;;;;;;;-1.00;98.30;;;;;;5014444;28;20016;-82
2022/03/06 05:52:03;;;;;;;;;;;-1.00;98.30;;;;;;5011638;28;19925;-82
2022/03/06 05:54:30;;;;;;;;;;;;;;;;;;5008584;28;19957;-82
2022/03/06 05:56:57;;;;;;;;;;;-0.90;98.40;;;;;;4994062;28;19979;-82
2022/03/06 05:59:24;;;;;;;;;;;-0.90;98.50;;;;;;5012341;28;20027;-82
2022/03/06 06:01:54;;;;;;;;;;;-0.90;98.60;;;;;;5012542;28;20471;-82
2022/03/06 06:04:21;;;;;;;;;;;-0.90;98.80;;;;;;5013573;28;19929;-82
2022/03/06 06:06:47;;;;;;;;;;;-0.80;98.80;;;;;;5012038;28;20016;-82
2022/03/06 06:09:15;;;;;;;;;;;-0.80;98.80;;;;;;5018969;28;19926;-84
2022/03/06 06:11:42;;;;;;;;;;;-0.80;98.90;;;;;;5023520;28;19925;-83
2022/03/06 06:14:09;;;;;;;;;;;1.30;99.80;;;;;;5015372;28;19932;-83
2022/03/06 06:16:35;;;;;;;;;;;-0.70;99.00;;;;;;5026926;28;19922;-83
2022/03/06 06:19:03;;;;;;;;;;;-0.70;98.90;;;;;;5017635;28;19922;-83
2022/03/06 06:21:30;;;;;;;;;;;-0.70;99.30;;;;;;5021307;28;20008;-85
2022/03/06 06:23:56;;;;;;;;;;;-0.60;99.40;;;;;;4999603;28;19929;-83
2022/03/06 06:26:24;;;;;;;;;;;-0.60;99.60;;;;;;5016082;28;19928;-83
2022/03/06 06:28:55;;;;;;;;;;;-0.60;99.70;;;;;;5009783;28;19929;-83
2022/03/06 06:31:23;;;;;;;;;;;-0.40;99.70;;;;;;5011838;28;19921;-83
2022/03/06 06:33:50;;;;;;;;;;;-0.40;99.80;;;;;;5014750;28;20417;-84
2022/03/06 06:36:17;;;;;;;;;;;-0.30;99.70;;;;;;5025673;28;19921;-85
2022/03/06 06:38:48;;;;;;;;;;;-0.30;99.90;;;;;;5031809;28;19909;-83
2022/03/06 06:41:15;;;;;;;;;;;-0.20;99.90;;;;;;5021392;28;20325;-82
2022/03/06 06:43:43;;;;;;;;;;;0.00;99.90;;;;;;5025014;28;20448;-86
2022/03/06 06:46:10;;;;;;;;;;;0.20;99.90;;;;;;5012316;28;19922;-84
2022/03/06 06:48:37;;;;;;;;;;;0.40;99.90;;;;;;5014891;28;19925;-84
2022/03/06 06:51:04;;;;;;;;;;;0.70;99.90;;;;;;5012077;28;19951;-82
2022/03/06 06:53:30;;;;;;;;;;;0.90;99.90;;;;;;5017975;28;19953;-87
2022/03/06 06:55:57;;;;;;;;;;;1.40;99.90;;;;;;5017652;28;20393;-84
2022/03/06 06:58:27;;;;;;;;;;;1.50;99.90;;;;;;5030342;28;20091;-85
2022/03/06 07:00:57;;;;;;;;;;;1.60;99.90;;;;;;5029344;28;19925;-86
2022/03/06 07:03:24;;;;;;;;;;;1.50;99.90;;;;;;5013534;28;20113;-85
2022/03/06 07:06:00;;;;;;;;;;;1.50;99.90;;;;;;5031162;28;19925;-83
2022/03/06 07:08:28;;;;;;;;;;;1.50;99.90;;;;;;5017416;28;19956;-84
2022/03/06 07:10:58;;;;;;;;;;;1.60;99.90;;;;;;5044027;28;19974;-84
2022/03/06 07:13:26;;;;;;;;;;;;;;;;;;5029494;28;19925;-85
2022/03/06 07:15:54;;;;;;;;;;;1.70;99.90;;;;;;5052608;23;19921;-78
2022/03/06 07:18:22;;;;;;;;;;;1.70;99.90;;;;;;5050917;28;20007;-78
2022/03/06 07:20:48;;;;;;;;;;;1.70;99.90;;;;;;5029506;28;19932;-79
2022/03/06 07:23:15;;;;;;;;;;;1.90;99.90;;;;;;5035970;28;20329;-78
2022/03/06 07:25:42;;;;;;;;;;;2.10;99.90;;;;;;5033577;28;19975;-80
2022/03/06 07:28:09;;;;;;;;;;;2.30;99.90;;;;;;5051135;28;19929;-77
2022/03/06 07:30:36;;;;;;;;;;;2.40;99.90;;;;;;5024557;28;19935;-77
2022/03/06 07:33:03;;;;;;;;;;;2.50;99.90;;;;;;5027077;28;19983;-78
2022/03/06 07:35:31;;;;;;;;;;;2.80;99.90;;;;;;5026507;28;19925;-77
2022/03/06 07:37:58;;;;;;;;;;;3.20;99.90;;;;;;5023313;28;20008;-77
2022/03/06 07:40:25;;;;;;;;;;;3.50;99.90;;;;;;5044163;28;19928;-79
2022/03/06 07:42:51;;;;;;;;;;;3.70;99.90;;;;;;5026805;28;19924;-78
2022/03/06 07:45:18;;;;;;;;;;;3.70;99.90;;;;;;5031343;28;19929;-79
2022/03/06 07:47:45;;;;;;;;;;;3.60;99.90;;;;;;5041663;28;19948;-78
2022/03/06 07:50:13;;;;;;;;;;;3.60;99.90;;;;;;5032216;28;19932;-78
2022/03/06 07:52:42;;;;;;;;;;;3.60;99.90;;;;;;5025868;28;19928;-78
2022/03/06 07:55:09;;;;;;;;;;;3.70;99.90;;;;;;5036423;28;19930;-78
2022/03/06 07:57:36;;;;;;;;;;;3.70;99.90;;;;;;5025743;28;20452;-78
2022/03/06 08:00:03;;;;;;;;;;;3.90;99.90;;;;;;5026355;28;19932;-78
2022/03/06 08:02:36;;;;;;;;;;;3.90;99.90;;;;;;5024074;28;19979;-78
2022/03/06 08:05:03;;;;;;;;;;;4.00;99.90;;;;;;5022024;28;19925;-78
2022/03/06 08:07:29;;;;;;;;;;;4.00;99.90;;;;;;5026820;28;19925;-80
2022/03/06 08:09:57;;;;;;;;;;;4.00;99.90;;;;;;5023236;28;19929;-79
2022/03/06 08:12:25;;;;;;;;;;;4.10;99.90;;;;;;5022377;28;20027;-77
2022/03/06 08:14:52;;;;;;;;;;;4.10;99.90;;;;;;5041552;28;19925;-79
2022/03/06 08:17:19;;;;;;;;;;;4.40;99.90;;;;;;5027344;28;20193;-78
2022/03/06 08:19:46;;;;;;;;;;;4.60;99.90;;;;;;5020953;28;19932;-78
2022/03/06 08:22:12;;;;;;;;;;;4.70;99.90;;;;;;5026743;28;20283;-79
2022/03/06 08:24:39;;;;;;;;;;;5.00;99.90;;;;;;5027789;28;19936;-79
2022/03/06 08:27:07;;;;;;;;;;;5.30;99.90;;;;;;5023588;28;19943;-78
2022/03/06 08:29:34;;;;;;;;;;;5.60;99.90;;;;;;5022389;28;19926;-78
2022/03/06 08:32:01;;;;;;;;;;;5.70;99.90;;;;;;5021127;28;19925;-77
2022/03/06 08:34:28;;;;;;;;;;;5.70;99.90;;;;;;5028228;28;20031;-78
2022/03/06 08:36:54;;;;;;;;;;;5.70;99.90;;;;;;5035687;28;19929;-79
2022/03/06 08:39:21;;;;;;;;;;;7.00;99.90;;;;;;5030006;28;19921;-77
2022/03/06 08:41:48;;;;;;;;;;;5.80;99.90;;;;;;5029587;28;20336;-79
2022/03/06 08:44:16;;;;;;;;;;;5.80;99.90;;;;;;5030278;28;19929;-78
2022/03/06 08:46:43;;;;;;;;;;;4.30;99.60;;;;;;5035688;28;19925;-80
2022/03/06 08:49:09;;;;;;;;;;;5.70;99.90;;;;;;5057211;28;20366;-76
2022/03/06 08:51:36;;;;;;;;;;;5.70;99.90;;;;;;5026606;28;19928;-76
2022/03/06 08:54:03;;;;;;;;;;;5.90;99.90;;;;;;5022676;28;19925;-76
2022/03/06 08:56:30;;;;;;;;;;;6.00;99.90;;;;;;5028676;28;19975;-77
2022/03/06 08:58:57;;;;;;;;;;;6.20;99.90;;;;;;5027921;28;19925;-77
2022/03/06 09:01:25;;;;;;;;;;;6.30;99.90;;;;;;5027154;28;19932;-77
2022/03/06 09:03:52;;;;;;;;;;;4.40;99.70;;;;;;5028717;28;19933;-77
2022/03/06 09:06:18;;;;;;;;;;;6.50;99.90;;;;;;5040636;28;19925;-77
2022/03/06 09:08:45;;;;;;;;;;;6.50;99.20;;;;;;5028088;28;20326;-77
2022/03/06 09:11:12;;;;;;;;;;;6.50;99.10;;;;;;5037509;28;19983;-77
2022/03/06 09:13:39;;;;;;;;;;;6.40;99.20;;;;;;5029092;28;19936;-75
2022/03/06 09:16:05;;;;;;;;;;;6.50;99.10;;;;;;5028964;28;20386;-79
2022/03/06 09:18:34;;;;;;;;;;;6.10;97.30;;;;;;5034984;28;20036;-77
2022/03/06 09:21:00;;;;;;;;;;;6.10;97.60;;;;;;5030812;28;20097;-77
2022/03/06 09:23:27;;;;;;;;;;;6.10;97.90;;;;;;5027059;28;19932;-77
2022/03/06 09:25:54;;;;;;;;;;;5.90;97.60;;;;;;5023730;28;19932;-78
2022/03/06 09:28:21;;;;;;;;;;;5.70;97.50;;;;;;5025496;28;20015;-77
2022/03/06 09:30:48;;;;;;;;;;;5.60;97.60;;;;;;5026231;28;20031;-77
2022/03/06 09:33:14;;;;;;;;;;;5.60;97.70;;;;;;5027741;28;20571;-77
2022/03/06 09:35:42;;;;;;;;;;;5.60;97.70;;;;;;5027115;28;19929;-78
2022/03/06 09:38:09;;;;;;;;;;;5.60;97.90;;;;;;5027393;28;20008;-79
2022/03/06 09:40:36;;;;;;;;;;;5.80;98.10;;;;;;5026200;28;19989;-77
2022/03/06 09:43:02;;;;;;;;;;;6.00;98.40;;;;;;5018289;28;19920;-77
2022/03/06 09:45:30;;;;;;;;;;;6.10;98.30;;;;;;5041486;28;19929;-79
2022/03/06 09:47:58;;;;;;;;;;;6.20;98.10;;;;;;5021462;28;19991;-80
2022/03/06 09:50:25;;;;;;;;;;;6.30;97.70;;;;;;5028305;28;19925;-80
2022/03/06 09:52:53;;;;;;;;;;;7.60;98.30;;;;;;5024188;28;20048;-78
2022/03/06 09:55:20;;;;;;;;;;;6.20;97.70;;;;;;5022475;28;19932;-78
2022/03/06 09:57:47;;;;;;;;;;;6.20;97.60;;;;;;5025528;28;19921;-79
2022/03/06 10:00:18;;;;;;;;;;;6.30;97.40;;;;;;5366003;23;19932;-78
2022/03/06 10:02:51;;;;;;;;;;;6.40;97.40;;;;;;5041689;28;20012;-80
2022/03/06 10:05:28;;;;;;;;;;;6.60;97.90;;;;;;5037370;28;20303;-79
2022/03/06 10:08:02;;;;;;;;;;;6.60;97.50;;;;;;5023940;28;20370;-79
2022/03/06 10:10:38;;;;;;;;;;;6.70;97.70;;;;;;5019660;28;19933;-78
2022/03/06 10:13:07;;;;;;;;;;;6.70;97.40;;;;;;5024238;28;19932;-78
2022/03/06 10:15:56;;;;;;;;;;;6.60;97.00;;;;;;5039756;23;20012;-85
2022/03/06 10:18:22;;;;;;;;;;;6.50;96.80;;;;;;5017893;28;19940;-85
2022/03/06 10:20:50;;;;;;;;;;;6.50;96.70;;;;;;5021655;28;19921;-89
2022/03/06 10:23:35;;;;;;;;;;;6.40;96.80;;;;;;5043324;28;20020;-85
2022/03/06 10:26:02;;;;;;;;;;;6.60;96.90;;;;;;5029927;28;20392;-85
2022/03/06 10:28:29;;;;;;;;;;;7.80;97.70;;;;;;5019242;28;19925;-86
2022/03/06 10:31:02;;;;;;;;;;;7.20;97.20;;;;;;5012016;28;19925;-85
2022/03/06 10:33:30;;;;;;;;;;;7.40;97.10;;;;;;5031261;28;20015;-85
2022/03/06 10:36:02;;;;;;;;;;;7.70;96.40;;;;;;5023144;28;19922;-85
2022/03/06 10:38:31;;;;;;;;;;;7.70;95.80;;;;;;5034786;28;19921;-84
2022/03/06 10:41:00;;;;;;;;;;;8.00;95.80;;;;;;5013531;28;19935;-87
2022/03/06 10:43:28;;;;;;;;;;;8.10;95.30;;;;;;5022366;28;20028;-84
2022/03/06 10:46:06;;;;;;;;;;;8.20;95.70;;;;;;5023288;28;20340;-88
2022/03/06 10:48:34;;;;;;;;;;;8.20;95.50;;;;;;5017504;28;19931;-86
2022/03/06 10:51:01;;;;;;;;;;;8.40;95.40;;;;;;5021740;28;19939;-86
2022/03/06 10:53:31;;;;;;;;;;;8.50;94.50;;;;;;5010194;28;19989;-85
2022/03/06 10:56:07;;;;;;;;;;;8.50;94.00;;;;;;5019457;28;19932;-85
2022/03/06 10:58:34;;;;;;;;;;;8.50;93.60;;;;;;5028549;28;19925;-84
2022/03/06 11:01:02;;;;;;;;;;;8.40;93.70;;;;;;5029213;28;19921;-86
2022/03/06 11:03:30;;;;;;;;;;;8.30;93.80;;;;;;5026164;28;19925;-85
2022/03/06 11:05:57;;;;;;;;;;;8.50;92.60;;;;;;5030702;28;19964;-86
2022/03/06 11:08:24;;;;;;;;;;;8.60;93.20;;;;;;5030863;28;19925;-86
2022/03/06 11:10:52;;;;;;;;;;;8.70;93.40;;;;;;5022264;28;19937;-85
2022/03/06 11:13:19;;;;;;;;;;;8.90;93.20;;;;;;5020963;28;20304;-87
2022/03/06 11:15:47;;;;;;;;;;;9.20;93.30;;;;;;5017364;28;19949;-86
2022/03/06 11:18:13;;;;;;;;;;;9.30;93.20;;;;;;5034689;28;19932;-84
2022/03/06 11:20:41;;;;;;;;;;;9.30;93.40;;;;;;5003752;28;20023;-87
2022/03/06 11:23:17;;;;;;;;;;;9.30;92.80;;;;;;5023435;28;19926;-86
2022/03/06 11:25:52;;;;;;;;;;;8.50;91.10;;;;;;5025146;28;20099;-85
2022/03/06 11:28:26;;;;;;;;;;;9.00;91.50;;;;;;5033646;28;20016;-86
2022/03/06 11:30:54;;;;;;;;;;;9.00;91.30;;;;;;5020637;28;19929;-87
2022/03/06 11:33:21;;;;;;;;;;;8.90;91.10;;;;;;5014855;28;19921;-86
2022/03/06 11:35:48;;;;;;;;;;;9.00;90.40;;;;;;5014176;28;19959;-86
2022/03/06 11:38:17;;;;;;;;;;;9.00;90.80;;;;;;5025943;28;20019;-87
2022/03/06 11:40:49;;;;;;;;;;;9.20;88.50;;;;;;5026521;28;19921;-87
2022/03/06 11:43:35;;;;;;;;;;;10.90;89.60;;;;;;5012899;28;19921;-89
2022/03/06 11:46:06;;;;;;;;;;;9.80;89.70;;;;;;5020890;28;19925;-87
2022/03/06 11:48:51;;;;;;;;;;;10.00;87.40;;;;;;5017753;28;19925;-87
2022/03/06 11:51:29;;;;;;;;;;;10.30;87.50;;;;;;5031630;28;19921;-88
2022/03/06 11:53:57;;;;;;;;;;;10.50;87.20;;;;;;5027751;28;19925;-88
2022/03/06 11:56:45;;;;;;;;;;;10.20;83.00;;;;;;5012334;28;19964;-89
2022/03/06 11:59:23;;;;;;;;;;;10.20;83.10;;;;;;5024117;28;19944;-87
2022/03/06 12:01:51;;;;;;;;;;;10.10;82.50;;;;;;5034893;28;19952;-88
2022/03/06 12:04:18;;;;;;;;;;;10.10;83.60;;;;;;5034358;28;19928;-88
2022/03/06 12:06:50;;;;;;;;;;;10.00;83.40;;;;;;5032450;28;19925;-88
2022/03/06 12:09:19;;;;;;;;;;;9.90;84.30;;;;;;5039627;28;19921;-88
2022/03/06 12:14:32;;;;;;;;;;;9.80;81.80;;;;;;5049899;28;19993;-87
2022/03/06 12:17:17;;;;;;;;;;;9.50;82.30;;;;;;5027919;28;20294;-86
2022/03/06 12:20:03;;;;;;;;;;;9.50;82.90;;;;;;5028820;28;19909;-88
2022/03/06 12:22:35;;;;;;;;;;;10.00;84.60;;;;;;5047358;28;20121;-89
2022/03/06 12:25:17;;;;;;;;;;;10.10;81.80;;;;;;5031969;28;19920;-88
2022/03/06 12:28:04;;;;;;;;;;;11.50;83.80;;;;;;5039814;28;19966;-87
2022/03/06 12:30:32;;;;;;;;;;;10.00;82.90;;;;;;5020172;28;19939;-87
2022/03/06 12:33:25;;;;;;;;;;;10.00;80.70;;;;;;5014829;28;19922;-87
2022/03/06 12:35:52;;;;;;;;;;;10.20;83.20;;;;;;5021829;28;19939;-87
2022/03/06 12:38:22;;;;;;;;;;;10.30;82.10;;;;;;5018595;28;19925;-88
2022/03/06 12:40:51;;;;;;;;;;;10.30;82.60;;;;;;5019879;28;19926;-88
2022/03/06 12:43:20;;;;;;;;;;;10.10;81.20;;;;;;5026812;28;19921;-87
2022/03/06 12:45:50;;;;;;;;;;;9.40;81.30;;;;;;5026162;28;19925;-88
2022/03/06 12:48:18;;;;;;;;;;;9.10;81.20;;;;;;5022403;28;20020;-87
2022/03/06 12:50:49;;;;;;;;;;;9.00;80.80;;;;;;5038345;28;19947;-88
2022/03/06 12:53:18;;;;;;;;;;;9.10;82.10;;;;;;5041137;28;19944;-88
2022/03/06 12:55:45;;;;;;;;;;;9.20;81.60;;;;;;5035178;28;19929;-88
2022/03/06 12:58:12;;;;;;;;;;;9.40;81.60;;;;;;5033569;28;20008;-88
2022/03/06 13:00:41;;;;;;;;;;;9.70;83.60;;;;;;5027256;28;20394;-89
2022/03/06 13:03:14;;;;;;;;;;;10.10;80.00;;;;;;5017849;28;19921;-88
2022/03/06 13:05:41;;;;;;;;;;;10.20;79.10;;;;;;5021816;28;19921;-87
2022/03/06 13:08:08;;;;;;;;;;;10.50;81.50;;;;;;5003848;28;19921;-89
2022/03/06 13:10:35;;;;;;;;;;;10.80;81.60;;;;;;5001409;28;19944;-86
2022/03/06 13:13:02;;;;;;;;;;;11.00;81.30;;;;;;5025820;28;19932;-85
2022/03/06 13:15:32;;;;;;;;;;;11.20;83.10;;;;;;5025449;28;19940;-85
2022/03/06 13:18:00;;;;;;;;;;;11.20;83.30;;;;;;5032509;28;19922;-86
2022/03/06 13:20:30;;;;;;;;;;;11.40;80.70;;;;;;5010496;28;19952;-85
2022/03/06 13:22:57;;;;;;;;;;;11.00;79.20;;;;;;5032668;28;19939;-85
2022/03/06 13:25:26;;;;;;;;;;;10.70;80.00;;;;;;5016653;28;19932;-84
2022/03/06 13:27:53;;;;;;;;;;;10.40;79.70;;;;;;5013782;28;20483;-84
2022/03/06 13:30:21;;;;;;;;;;;10.10;79.10;;;;;;5012516;28;19928;-86
2022/03/06 13:32:49;;;;;;;;;;;9.40;81.40;;;;;;5014029;28;20001;-85
2022/03/06 13:35:29;;;;;;;;;;;9.10;81.20;;;;;;5028937;28;19947;-85
2022/03/06 13:37:58;;;;;;;;;;;9.00;81.70;;;;;;5023414;28;20032;-85
2022/03/06 13:40:26;;;;;;;;;;;8.90;83.00;;;;;;5027978;28;19929;-84
2022/03/06 13:42:54;;;;;;;;;;;9.20;83.90;;;;;;5021237;28;19925;-84
2022/03/06 13:45:22;;;;;;;;;;;9.40;84.00;;;;;;5025555;28;19931;-84
2022/03/06 13:47:50;;;;;;;;;;;9.40;84.20;;;;;;5021528;28;19921;-84
2022/03/06 13:50:21;;;;;;;;;;;9.60;84.10;;;;;;5029045;28;19921;-85
2022/03/06 13:52:49;;;;;;;;;;;9.50;83.10;;;;;;5030343;28;19948;-85
2022/03/06 13:55:18;;;;;;;;;;;9.50;82.80;;;;;;5037170;28;19967;-85
2022/03/06 13:58:01;;;;;;;;;;;9.20;82.40;;;;;;5034851;28;19971;-86
2022/03/06 14:00:29;;;;;;;;;;;9.30;83.00;;;;;;5012094;28;19921;-86
2022/03/06 14:03:00;;;;;;;;;;;9.00;82.40;;;;;;5014570;28;19929;-86
2022/03/06 14:05:27;;;;;;;;;;;8.80;82.00;;;;;;5035035;28;19925;-85
2022/03/06 14:07:54;;;;;;;;;;;8.70;82.30;;;;;;5028768;28;19992;-85
2022/03/06 14:10:35;;;;;;;;;;;8.70;83.00;;;;;;5025033;28;19929;-86
2022/03/06 14:13:18;;;;;;;;;;;8.60;83.20;;;;;;5021455;28;19941;-85
2022/03/06 14:15:45;;;;;;;;;;;8.60;83.40;;;;;;5005763;28;19932;-84
2022/03/06 14:18:12;;;;;;;;;;;8.60;84.00;;;;;;5028267;28;19925;-86
2022/03/06 14:20:45;;;;;;;;;;;8.80;83.90;;;;;;5027739;28;19933;-85
2022/03/06 14:23:14;;;;;;;;;;;8.90;84.10;;;;;;5042982;28;19975;-84
2022/03/06 14:25:42;;;;;;;;;;;8.90;84.00;;;;;;5043439;28;19940;-85
2022/03/06 14:28:10;;;;;;;;;;;9.10;83.00;;;;;;5035728;28;20011;-86
2022/03/06 14:30:38;;;;;;;;;;;9.10;83.60;;;;;;5041108;28;19967;-87
2022/03/06 14:33:10;;;;;;;;;;;9.00;83.20;;;;;;5011053;28;20012;-86
2022/03/06 14:35:37;;;;;;;;;;;8.70;82.70;;;;;;5033933;28;19933;-85
2022/03/06 14:38:04;;;;;;;;;;;8.70;83.60;;;;;;5024115;28;19932;-87
2022/03/06 14:40:32;;;;;;;;;;;8.30;82.50;;;;;;5030741;28;19924;-84
2022/03/06 14:42:59;;;;;;;;;;;8.20;82.10;;;;;;5033290;28;19928;-85